Time,TemperatureF,DewpointF,PressureIn,WindDirection,WindDirectionDegrees,WindSpeedMPH,WindSpeedGustMPH,Humidity,HourlyPrecipIn,Conditions,Clouds,dailyrainin,SoftwareType,DateUTC
2013-02-28 00:07:00,43.0,38.0,29.62,WSW,256,0.0,2.0,81,0.00,,,0.00,weatherlink.com 1.10,2013-02-28 05:07:00,
2013-02-28 00:22:00,43.1,38.0,29.62,West,263,1.0,1.0,82,0.00,,,0.00,weatherlink.com 1.10,2013-02-28 05:22:00,
2013-02-28 00:37:00,42.9,38.0,29.62,WSW,242,0.0,1.0,83,0.00,,,0.00,weatherlink.com 1.10,2013-02-28 05:37:00,
2013-02-28 00:52:00,42.8,38.0,29.62,West,263,0.0,1.0,83,0.00,,,0.00,weatherlink.com 1.10,2013-02-28 05:52:00,
2013-02-28 01:07:00,42.6,38.0,29.61,WSW,257,0.0,1.0,84,0.00,,,0.00,weatherlink.com 1.10,2013-02-28 06:07:00,
2013-02-28 01:22:00,42.5,38.0,29.61,West,276,0.0,1.0,84,0.00,,,0.00,weatherlink.com 1.10,2013-02-28 06:22:00,
2013-02-28 01:37:00,42.5,38.0,29.61,West,260,0.0,2.0,85,0.00,,,0.00,weatherlink.com 1.10,2013-02-28 06:37:00,
2013-02-28 01:52:00,42.4,38.0,29.61,WSW,253,0.0,1.0,85,0.00,,,0.00,weatherlink.com 1.10,2013-02-28 06:52:00,
2013-02-28 02:07:00,42.3,38.0,29.61,South,181,0.0,1.0,85,0.00,,,0.00,weatherlink.com 1.10,2013-02-28 07:07:00,
2013-02-28 02:22:00,42.5,38.0,29.61,SW,222,0.0,1.0,85,0.00,,,0.00,weatherlink.com 1.10,2013-02-28 07:22:00,
2013-02-28 02:37:00,42.3,38.0,29.60,SW,221,0.0,0.0,85,0.00,,,0.00,weatherlink.com 1.10,2013-02-28 07:37:00,
2013-02-28 02:52:00,42.0,38.0,29.60,SW,221,0.0,0.0,86,0.00,,,0.00,weatherlink.com 1.10,2013-02-28 07:52:00,
2013-02-28 03:07:00,41.9,38.0,29.60,West,262,0.0,1.0,87,0.00,,,0.00,weatherlink.com 1.10,2013-02-28 08:07:00,
2013-02-28 03:22:00,42.2,39.0,29.61,WSW,239,0.0,1.0,87,0.00,,,0.00,weatherlink.com 1.10,2013-02-28 08:22:00,
2013-02-28 03:37:00,42.4,39.0,29.60,WSW,249,0.0,2.0,86,0.00,,,0.00,weatherlink.com 1.10,2013-02-28 08:37:00,
2013-02-28 03:52:00,42.3,39.0,29.60,SW,222,0.0,1.0,87,0.00,,,0.00,weatherlink.com 1.10,2013-02-28 08:52:00,
2013-02-28 04:07:00,42.1,39.0,29.61,SSE,162,1.0,1.0,87,0.00,,,0.00,weatherlink.com 1.10,2013-02-28 09:07:00,
2013-02-28 04:23:00,42.0,39.0,29.61,SSE,163,0.0,1.0,88,0.00,,,0.00,weatherlink.com 1.10,2013-02-28 09:23:00,
2013-02-28 04:38:00,41.9,39.0,29.60,South,184,0.0,1.0,89,0.00,,,0.00,weatherlink.com 1.10,2013-02-28 09:38:00,
2013-02-28 04:53:00,41.8,39.0,29.60,South,170,0.0,0.0,90,0.00,,,0.00,weatherlink.com 1.10,2013-02-28 09:53:00,
2013-02-28 05:08:00,41.5,39.0,29.60,South,172,0.0,1.0,91,0.00,,,0.00,weatherlink.com 1.10,2013-02-28 10:08:00,
2013-02-28 05:23:00,41.3,39.0,29.60,South,172,0.0,0.0,91,0.00,,,0.00,weatherlink.com 1.10,2013-02-28 10:23:00,
2013-02-28 05:38:00,41.3,39.0,29.59,South,174,0.0,0.0,92,0.00,,,0.00,weatherlink.com 1.10,2013-02-28 10:38:00,
2013-02-28 05:53:00,41.3,39.0,29.59,South,174,0.0,1.0,92,0.00,,,0.00,weatherlink.com 1.10,2013-02-28 10:53:00,
2013-02-28 06:08:00,41.3,39.0,29.60,South,177,0.0,1.0,92,0.00,,,0.00,weatherlink.com 1.10,2013-02-28 11:08:00,
2013-02-28 06:23:00,41.2,39.0,29.60,South,177,0.0,0.0,92,0.00,,,0.00,weatherlink.com 1.10,2013-02-28 11:23:00,
2013-02-28 06:38:00,41.3,39.0,29.60,West,264,0.0,2.0,92,0.00,,,0.00,weatherlink.com 1.10,2013-02-28 11:38:00,
2013-02-28 06:53:00,41.6,39.0,29.60,West,262,0.0,1.0,91,0.00,,,0.00,weatherlink.com 1.10,2013-02-28 11:53:00,
2013-02-28 07:08:00,42.0,39.0,29.61,West,264,1.0,3.0,88,0.00,,,0.00,weatherlink.com 1.10,2013-02-28 12:08:00,
2013-02-28 07:23:00,42.5,39.0,29.60,WSW,252,0.0,3.0,87,0.00,,,0.00,weatherlink.com 1.10,2013-02-28 12:23:00,
2013-02-28 07:38:00,42.7,39.0,29.61,SW,235,0.0,3.0,86,0.00,,,0.00,weatherlink.com 1.10,2013-02-28 12:38:00,
2013-02-28 08:08:00,43.6,39.0,29.61,WSW,240,1.0,2.0,85,0.00,,,0.00,weatherlink.com 1.10,2013-02-28 13:08:00,
2013-02-28 08:23:00,44.3,40.0,29.61,SW,229,1.0,2.0,84,0.00,,,0.00,weatherlink.com 1.10,2013-02-28 13:23:00,
2013-02-28 08:38:00,44.9,40.0,29.61,WSW,243,0.0,2.0,83,0.00,,,0.00,weatherlink.com 1.10,2013-02-28 13:38:00,
2013-02-28 08:54:00,45.5,39.0,29.61,West,277,2.0,3.0,79,0.00,,,0.00,weatherlink.com 1.10,2013-02-28 13:54:00,
2013-02-28 09:08:00,45.6,39.0,29.61,WSW,253,3.0,4.0,77,0.00,,,0.00,weatherlink.com 1.10,2013-02-28 14:08:00,
2013-02-28 09:23:00,46.0,39.0,29.61,WSW,242,3.0,4.0,77,0.00,,,0.00,weatherlink.com 1.10,2013-02-28 14:23:00,
2013-02-28 09:38:00,45.7,40.0,29.61,West,262,0.0,5.0,79,0.00,,,0.00,weatherlink.com 1.10,2013-02-28 14:38:00,
2013-02-28 09:53:00,45.4,40.0,29.61,WSW,248,2.0,5.0,80,0.00,,,0.00,weatherlink.com 1.10,2013-02-28 14:53:00,
2013-02-28 10:08:00,45.2,40.0,29.60,WSW,247,2.0,4.0,81,0.00,,,0.00,weatherlink.com 1.10,2013-02-28 15:08:00,
2013-02-28 10:23:00,46.1,40.0,29.59,West,269,0.0,3.0,79,0.00,,,0.00,weatherlink.com 1.10,2013-02-28 15:23:00,
2013-02-28 10:38:00,47.4,40.0,29.59,WSW,255,6.0,6.0,74,0.00,,,0.00,weatherlink.com 1.10,2013-02-28 15:38:00,
2013-02-28 10:53:00,48.3,39.0,29.58,ESE,108,0.0,4.0,71,0.00,,,0.00,weatherlink.com 1.10,2013-02-28 15:53:00,
2013-02-28 11:08:00,47.7,39.0,29.58,SW,224,1.0,7.0,72,0.00,,,0.00,weatherlink.com 1.10,2013-02-28 16:08:00,
2013-02-28 11:23:00,47.9,39.0,29.57,SW,231,0.0,4.0,72,0.00,,,0.00,weatherlink.com 1.10,2013-02-28 16:23:00,
2013-02-28 11:38:00,47.8,38.0,29.57,NW,304,2.0,6.0,70,0.00,,,0.00,weatherlink.com 1.10,2013-02-28 16:38:00,
2013-02-28 11:54:00,48.2,38.0,29.56,WSW,251,0.0,2.0,68,0.00,,,0.00,weatherlink.com 1.10,2013-02-28 16:54:00,
2013-02-28 12:08:00,49.5,38.0,29.55,SSE,153,1.0,3.0,64,0.00,,,0.00,weatherlink.com 1.10,2013-02-28 17:08:00,
2013-02-28 12:23:00,50.4,38.0,29.55,West,264,1.0,4.0,62,0.00,,,0.00,weatherlink.com 1.10,2013-02-28 17:23:00,
2013-02-28 12:38:00,50.1,37.0,29.54,NW,304,1.0,5.0,61,0.00,,,0.00,weatherlink.com 1.10,2013-02-28 17:38:00,
2013-02-28 13:08:00,49.5,36.0,29.54,West,269,0.0,2.0,60,0.00,,,0.00,weatherlink.com 1.10,2013-02-28 18:08:00,
2013-02-28 13:23:00,48.8,35.0,29.54,West,273,1.0,5.0,60,0.00,,,0.00,weatherlink.com 1.10,2013-02-28 18:23:00,
2013-02-28 13:38:00,48.3,35.0,29.54,WNW,285,0.0,3.0,61,0.00,,,0.00,weatherlink.com 1.10,2013-02-28 18:38:00,
2013-02-28 13:53:00,48.3,35.0,29.54,West,262,0.0,2.0,60,0.00,,,0.00,weatherlink.com 1.10,2013-02-28 18:53:00,
2013-02-28 14:08:00,48.6,34.0,29.54,WSW,255,2.0,3.0,58,0.00,,,0.00,weatherlink.com 1.10,2013-02-28 19:08:00,
2013-02-28 14:23:00,48.5,36.0,29.53,WSW,238,0.0,2.0,63,0.00,,,0.00,weatherlink.com 1.10,2013-02-28 19:23:00,
2013-02-28 14:38:00,48.9,35.0,29.53,WSW,250,0.0,3.0,60,0.00,,,0.00,weatherlink.com 1.10,2013-02-28 19:38:00,
2013-02-28 14:53:00,48.9,35.0,29.53,WNW,284,2.0,3.0,60,0.00,,,0.00,weatherlink.com 1.10,2013-02-28 19:53:00,
2013-02-28 15:08:00,48.3,36.0,29.53,West,280,1.0,4.0,62,0.00,,,0.00,weatherlink.com 1.10,2013-02-28 20:08:00,
2013-02-28 15:23:00,47.7,36.0,29.53,WSW,246,0.0,3.0,63,0.00,,,0.00,weatherlink.com 1.10,2013-02-28 20:23:00,
2013-02-28 15:38:00,47.2,35.0,29.53,NNW,329,2.0,4.0,62,0.00,,,0.00,weatherlink.com 1.10,2013-02-28 20:38:00,
2013-02-28 15:53:00,46.5,35.0,29.53,WNW,295,2.0,7.0,64,0.00,,,0.00,weatherlink.com 1.10,2013-02-28 20:53:00,
2013-02-28 16:08:00,46.1,35.0,29.53,WSW,246,0.0,3.0,65,0.00,,,0.00,weatherlink.com 1.10,2013-02-28 21:08:00,
2013-02-28 16:23:00,46.0,34.0,29.53,West,267,0.0,3.0,64,0.00,,,0.00,weatherlink.com 1.10,2013-02-28 21:23:00,
2013-02-28 16:38:00,45.9,34.0,29.53,SW,226,1.0,4.0,64,0.00,,,0.00,weatherlink.com 1.10,2013-02-28 21:38:00,
2013-02-28 16:54:00,45.7,34.0,29.53,West,278,3.0,5.0,64,0.00,,,0.00,weatherlink.com 1.10,2013-02-28 21:54:00,
2013-02-28 17:24:00,45.5,34.0,29.53,WNW,284,2.0,4.0,64,0.00,,,0.00,weatherlink.com 1.10,2013-02-28 22:24:00,
2013-02-28 17:39:00,45.4,33.0,29.54,West,267,0.0,5.0,63,0.00,,,0.00,weatherlink.com 1.10,2013-02-28 22:39:00,
2013-02-28 17:54:00,45.2,34.0,29.55,WSW,255,2.0,6.0,65,0.00,,,0.00,weatherlink.com 1.10,2013-02-28 22:54:00,
2013-02-28 18:09:00,44.8,34.0,29.55,West,266,0.0,4.0,67,0.00,,,0.00,weatherlink.com 1.10,2013-02-28 23:09:00,
2013-02-28 18:24:00,44.4,34.0,29.56,WSW,243,3.0,5.0,66,0.00,,,0.00,weatherlink.com 1.10,2013-02-28 23:24:00,
2013-02-28 18:39:00,44.3,33.0,29.56,WNW,298,0.0,5.0,65,0.00,,,0.00,weatherlink.com 1.10,2013-02-28 23:39:00,
2013-02-28 18:54:00,44.1,33.0,29.56,West,275,1.0,6.0,64,0.00,,,0.00,weatherlink.com 1.10,2013-02-28 23:54:00,
2013-02-28 19:09:00,44.0,32.0,29.57,West,270,0.0,4.0,64,0.00,,,0.00,weatherlink.com 1.10,2013-03-01 00:09:00,
2013-02-28 19:24:00,43.8,33.0,29.57,West,270,0.0,2.0,66,0.00,,,0.00,weatherlink.com 1.10,2013-03-01 00:24:00,
2013-02-28 19:39:00,43.7,33.0,29.57,WSW,249,0.0,3.0,66,0.00,,,0.00,weatherlink.com 1.10,2013-03-01 00:39:00,
2013-02-28 19:54:00,43.5,33.0,29.57,West,275,0.0,2.0,66,0.00,,,0.00,weatherlink.com 1.10,2013-03-01 00:54:00,
2013-02-28 20:09:00,43.5,32.0,29.57,NW,308,0.0,2.0,65,0.00,,,0.00,weatherlink.com 1.10,2013-03-01 01:09:00,
2013-02-28 20:24:00,43.4,32.0,29.58,West,276,1.0,3.0,64,0.00,,,0.00,weatherlink.com 1.10,2013-03-01 01:24:00,
2013-02-28 20:39:00,43.5,31.0,29.58,WSW,239,0.0,5.0,62,0.00,,,0.00,weatherlink.com 1.10,2013-03-01 01:39:00,
2013-02-28 20:54:00,43.3,31.0,29.58,West,278,1.0,4.0,63,0.00,,,0.00,weatherlink.com 1.10,2013-03-01 01:54:00,
2013-02-28 21:09:00,43.1,31.0,29.58,NW,307,1.0,4.0,63,0.00,,,0.00,weatherlink.com 1.10,2013-03-01 02:09:00,
2013-02-28 21:24:00,42.7,31.0,29.58,WNW,300,1.0,3.0,64,0.00,,,0.00,weatherlink.com 1.10,2013-03-01 02:24:00,
2013-02-28 21:39:00,42.5,31.0,29.59,North,6,1.0,6.0,65,0.00,,,0.00,weatherlink.com 1.10,2013-03-01 02:39:00,
2013-02-28 21:54:00,42.2,31.0,29.59,WSW,253,1.0,5.0,64,0.00,,,0.00,weatherlink.com 1.10,2013-03-01 02:54:00,
2013-02-28 22:09:00,42.0,31.0,29.59,NNE,19,3.0,4.0,65,0.00,,,0.00,weatherlink.com 1.10,2013-03-01 03:09:00,
2013-02-28 22:24:00,41.8,31.0,29.59,West,280,1.0,3.0,66,0.00,,,0.00,weatherlink.com 1.10,2013-03-01 03:24:00,
2013-02-28 22:39:00,41.7,31.0,29.59,West,277,1.0,3.0,67,0.00,,,0.00,weatherlink.com 1.10,2013-03-01 03:39:00,
2013-02-28 22:54:00,41.6,32.0,29.59,WSW,238,4.0,5.0,68,0.00,,,0.00,weatherlink.com 1.10,2013-03-01 03:54:00,
2013-02-28 23:09:00,41.4,32.0,29.59,West,269,1.0,6.0,68,0.00,,,0.00,weatherlink.com 1.10,2013-03-01 04:09:00,
2013-02-28 23:24:00,41.1,32.0,29.59,WSW,243,1.0,5.0,69,0.00,,,0.00,weatherlink.com 1.10,2013-03-01 04:24:00,
2013-02-28 23:39:00,40.7,32.0,29.59,West,273,3.0,7.0,70,0.00,,,0.00,weatherlink.com 1.10,2013-03-01 04:39:00,
2013-02-28 23:54:00,40.2,31.0,29.59,SSW,204,1.0,7.0,71,0.00,,,0.00,weatherlink.com 1.10,2013-03-01 04:54:00,